createdAt,value
2023-01-19T00:01:36.744Z,2.79
2023-01-19T00:04:04.768Z,2.72
2023-01-19T00:06:32.829Z,2.85
2023-01-19T00:09:00.759Z,2.75
2023-01-19T00:11:28.507Z,2.72
2023-01-19T00:13:56.655Z,2.84
2023-01-19T00:16:24.417Z,2.72
2023-01-19T00:18:53.123Z,2.74
2023-01-19T00:21:24.676Z,2.77
2023-01-19T00:23:52.875Z,2.72
2023-01-19T00:26:22.288Z,2.78
2023-01-19T00:28:50.455Z,2.71
2023-01-19T00:31:20.733Z,2.83
2023-01-19T00:33:50.158Z,2.80
2023-01-19T00:36:18.422Z,2.80
2023-01-19T00:38:46.388Z,2.72
2023-01-19T00:41:14.173Z,2.71
2023-01-19T00:43:42.037Z,2.75
2023-01-19T00:46:10.176Z,2.93
2023-01-19T00:48:38.086Z,2.80
2023-01-19T00:51:05.909Z,2.81
2023-01-19T00:53:33.834Z,2.74
2023-01-19T00:56:01.479Z,2.86
2023-01-19T00:58:29.494Z,2.72
2023-01-19T01:01:03.394Z,2.69
2023-01-19T01:03:32.219Z,2.70
2023-01-19T01:06:00.015Z,2.74
2023-01-19T01:08:28.015Z,2.67
2023-01-19T01:10:56.064Z,2.61
2023-01-19T01:13:27.298Z,2.47
2023-01-19T01:15:57.038Z,2.46
2023-01-19T01:18:25.308Z,2.48
2023-01-19T01:20:55.269Z,2.44
2023-01-19T01:23:24.228Z,2.39
2023-01-19T01:25:51.963Z,2.38
2023-01-19T01:28:20.169Z,2.32
2023-01-19T01:30:47.927Z,2.23
2023-01-19T01:33:15.960Z,2.29
2023-01-19T01:36:03.798Z,2.28
2023-01-19T01:38:31.754Z,2.21
2023-01-19T01:40:59.403Z,2.22
2023-01-19T01:43:44.808Z,2.32
2023-01-19T01:46:15.552Z,2.51
2023-01-19T01:49:02.698Z,2.45
2023-01-19T01:51:52.831Z,2.43
2023-01-19T01:54:46.792Z,2.45
2023-01-19T01:57:14.995Z,2.43
2023-01-19T01:59:48.345Z,2.47
2023-01-19T02:02:41.696Z,2.63
2023-01-19T02:05:27.350Z,2.85
2023-01-19T02:08:17.549Z,3.00
2023-01-19T02:11:05.082Z,2.84
2023-01-19T02:13:36.995Z,2.73
2023-01-19T02:16:08.534Z,2.62
2023-01-19T02:18:37.369Z,2.58
2023-01-19T02:21:21.182Z,2.74
2023-01-19T02:24:01.738Z,2.78
2023-01-19T02:26:46.993Z,2.73
2023-01-19T02:29:22.799Z,2.85
2023-01-19T02:31:51.037Z,3.07
2023-01-19T02:34:20.949Z,3.08
2023-01-19T02:36:57.452Z,3.04
2023-01-19T02:39:35.163Z,3.11
2023-01-19T02:42:12.402Z,3.10
2023-01-19T02:44:43.459Z,2.92
2023-01-19T02:47:12.364Z,2.82
2023-01-19T02:49:40.099Z,2.77
2023-01-19T02:52:15.988Z,2.74
2023-01-19T02:54:54.203Z,2.75
2023-01-19T02:57:27.930Z,2.80
2023-01-19T03:00:01.396Z,2.90
2023-01-19T03:02:44.205Z,2.86
2023-01-19T03:05:38.187Z,2.77
2023-01-19T03:08:20.905Z,2.89
2023-01-19T03:10:54.733Z,3.06
2023-01-19T03:13:28.109Z,3.04
2023-01-19T03:16:06.123Z,2.92
2023-01-19T03:18:38.285Z,2.86
2023-01-19T03:21:07.947Z,2.88
2023-01-19T03:23:38.776Z,2.76
2023-01-19T03:26:11.508Z,2.72
2023-01-19T03:28:42.110Z,2.77
2023-01-19T03:31:21.605Z,2.73
2023-01-19T03:33:56.520Z,2.63
2023-01-19T03:36:36.179Z,2.74
2023-01-19T03:39:07.934Z,2.81
2023-01-19T03:41:37.780Z,2.77
2023-01-19T03:44:07.796Z,2.73
2023-01-19T03:46:35.703Z,2.84
2023-01-19T03:49:03.643Z,3.15
2023-01-19T03:51:34.961Z,2.84
2023-01-19T03:54:03.291Z,2.80
2023-01-19T03:56:30.983Z,2.87
2023-01-19T03:58:59.042Z,2.85
2023-01-19T04:01:26.965Z,2.92
2023-01-19T04:03:55.047Z,2.94
2023-01-19T04:06:23.124Z,2.72
2023-01-19T04:08:51.689Z,2.86
2023-01-19T04:11:19.459Z,2.73
2023-01-19T04:13:47.486Z,2.84
2023-01-19T04:16:20.085Z,3.05
2023-01-19T04:18:48.637Z,2.86
2023-01-19T04:21:16.621Z,3.06
2023-01-19T04:23:46.022Z,3.24
2023-01-19T04:26:13.960Z,3.25
2023-01-19T04:28:41.950Z,3.00
2023-01-19T04:31:09.911Z,3.11
2023-01-19T04:33:37.830Z,3.17
2023-01-19T04:36:05.913Z,2.92
2023-01-19T04:38:33.875Z,2.88
2023-01-19T04:41:01.527Z,2.88
2023-01-19T04:43:29.733Z,2.87
2023-01-19T04:45:57.534Z,2.89
2023-01-19T04:48:25.623Z,2.85
2023-01-19T04:50:53.991Z,2.81
2023-01-19T04:53:21.975Z,2.91
2023-01-19T04:55:56.587Z,2.95
2023-01-19T04:58:24.600Z,2.81
2023-01-19T05:00:53.196Z,2.75
2023-01-19T05:03:21.431Z,2.71
2023-01-19T05:05:49.336Z,2.94
2023-01-19T05:08:17.390Z,2.96
2023-01-19T05:10:45.124Z,2.85
2023-01-19T05:13:14.104Z,2.81
2023-01-19T05:15:41.925Z,2.77
2023-01-19T05:18:10.413Z,2.71
2023-01-19T05:20:38.178Z,2.75
2023-01-19T05:23:06.057Z,2.84
2023-01-19T05:25:33.739Z,2.90
2023-01-19T05:28:03.273Z,2.78
2023-01-19T05:30:31.167Z,2.63
2023-01-19T05:32:59.436Z,2.74
2023-01-19T05:35:35.721Z,2.57
2023-01-19T05:38:05.314Z,2.56
2023-01-19T05:40:33.453Z,2.63
2023-01-19T05:43:05.210Z,2.62
2023-01-19T05:45:33.603Z,2.87
2023-01-19T05:48:01.854Z,2.80
2023-01-19T05:50:29.764Z,2.69
2023-01-19T05:52:58.576Z,2.60
2023-01-19T05:55:26.857Z,2.79
2023-01-19T05:57:54.800Z,2.90
2023-01-19T06:00:22.681Z,2.75
2023-01-19T06:02:50.539Z,2.83
2023-01-19T06:05:18.447Z,2.76
2023-01-19T06:07:46.509Z,2.77
2023-01-19T06:10:14.181Z,2.76
2023-01-19T06:12:42.361Z,2.75
2023-01-19T06:15:10.392Z,2.68
2023-01-19T06:17:38.357Z,3.03
2023-01-19T06:20:07.126Z,2.80
2023-01-19T06:22:35.090Z,2.77
2023-01-19T06:25:02.915Z,2.77
2023-01-19T06:27:30.878Z,2.93
2023-01-19T06:29:58.488Z,2.82
2023-01-19T06:32:26.430Z,2.83
2023-01-19T06:34:54.278Z,2.81
2023-01-19T06:37:22.442Z,2.76
2023-01-19T06:39:50.127Z,2.82
2023-01-19T06:42:18.102Z,2.93
2023-01-19T06:44:48.124Z,2.89
2023-01-19T06:47:16.961Z,2.93
2023-01-19T06:49:44.740Z,2.74
2023-01-19T06:52:16.073Z,2.84
2023-01-19T06:54:45.272Z,2.87
2023-01-19T06:57:15.240Z,2.93
2023-01-19T06:59:42.934Z,2.87
2023-01-19T07:02:26.255Z,2.95
2023-01-19T07:04:55.219Z,2.83
2023-01-19T07:07:23.150Z,2.92
2023-01-19T07:09:53.677Z,3.14
2023-01-19T07:12:22.826Z,3.15
2023-01-19T07:14:50.568Z,3.00
2023-01-19T07:17:19.002Z,2.94
2023-01-19T07:19:47.033Z,3.02
2023-01-19T07:22:15.035Z,3.13
2023-01-19T07:24:43.196Z,3.05
2023-01-19T07:27:13.963Z,3.00
2023-01-19T07:29:42.397Z,3.08
2023-01-19T07:32:10.371Z,2.98
2023-01-19T07:34:38.064Z,3.19
2023-01-19T07:37:06.073Z,3.39
2023-01-19T07:39:36.655Z,3.39
2023-01-19T07:42:04.877Z,3.49
2023-01-19T07:44:32.698Z,3.58
2023-01-19T07:47:00.715Z,3.63
2023-01-19T07:49:28.374Z,3.71
2023-01-19T07:51:56.499Z,3.41
2023-01-19T07:54:24.301Z,3.46
2023-01-19T07:56:55.101Z,3.39
2023-01-19T07:59:22.818Z,3.38
2023-01-19T08:01:52.262Z,3.55
2023-01-19T08:04:20.327Z,3.77
2023-01-19T08:06:48.359Z,3.42
2023-01-19T08:09:15.967Z,3.71
2023-01-19T08:11:43.903Z,3.74
2023-01-19T08:14:11.635Z,3.83
2023-01-19T08:16:39.708Z,3.62
2023-01-19T08:19:07.462Z,3.59
2023-01-19T08:21:36.464Z,3.65
2023-01-19T08:24:04.535Z,3.70
2023-01-19T08:26:34.911Z,3.85
2023-01-19T08:29:05.189Z,3.61
2023-01-19T08:31:33.613Z,3.58
2023-01-19T08:34:01.419Z,3.60
2023-01-19T08:36:29.364Z,3.62
2023-01-19T08:38:57.203Z,3.67
2023-01-19T08:41:25.191Z,3.79
2023-01-19T08:43:52.860Z,3.80
2023-01-19T08:46:21.982Z,3.85
2023-01-19T08:48:50.470Z,3.80
2023-01-19T08:51:19.394Z,3.71
2023-01-19T08:53:47.081Z,3.59
2023-01-19T08:56:15.160Z,3.83
2023-01-19T08:58:44.555Z,3.90
2023-01-19T09:01:15.006Z,3.61
2023-01-19T09:03:43.728Z,3.60
2023-01-19T09:06:14.776Z,3.55
2023-01-19T09:08:42.770Z,3.70
2023-01-19T09:11:12.998Z,3.89
2023-01-19T09:13:41.563Z,3.85
2023-01-19T09:16:12.778Z,3.98
2023-01-19T09:18:40.573Z,4.10
2023-01-19T09:21:09.095Z,4.02
2023-01-19T09:23:37.216Z,4.00
2023-01-19T09:26:06.486Z,3.96
2023-01-19T09:28:34.300Z,3.90
2023-01-19T09:31:07.595Z,3.85
2023-01-19T09:33:36.021Z,3.85
2023-01-19T09:36:04.385Z,3.85
2023-01-19T09:38:32.963Z,3.68
2023-01-19T09:41:01.592Z,3.79
2023-01-19T09:43:35.382Z,3.91
2023-01-19T09:46:16.920Z,3.99
2023-01-19T09:48:56.574Z,4.03
2023-01-19T09:51:28.059Z,3.76
2023-01-19T09:54:14.719Z,3.80
2023-01-19T09:56:49.963Z,3.96
2023-01-19T09:59:30.544Z,4.03
2023-01-19T10:02:13.679Z,4.02
2023-01-19T10:05:22.629Z,4.01
2023-01-19T10:08:06.131Z,4.14
2023-01-19T10:10:36.170Z,4.23
2023-01-19T10:13:12.736Z,4.33
2023-01-19T10:15:58.417Z,4.38
2023-01-19T10:18:34.954Z,4.44
2023-01-19T10:21:06.213Z,4.39
2023-01-19T10:23:55.760Z,4.49
2023-01-19T10:26:29.272Z,4.46
2023-01-19T10:29:05.390Z,4.64
2023-01-19T10:31:35.958Z,4.57
2023-01-19T10:34:04.610Z,4.64
2023-01-19T10:36:38.296Z,4.64
2023-01-19T10:39:07.252Z,4.40
2023-01-19T10:41:44.002Z,4.48
2023-01-19T10:44:12.347Z,4.43
2023-01-19T10:46:44.103Z,4.73
2023-01-19T10:49:28.457Z,4.80
2023-01-19T10:51:57.342Z,4.68
2023-01-19T10:54:27.632Z,4.73
2023-01-19T10:57:05.984Z,4.50
2023-01-19T10:59:45.028Z,4.66
2023-01-19T11:02:18.497Z,4.53
2023-01-19T11:04:52.911Z,4.57
2023-01-19T11:07:26.606Z,4.69
2023-01-19T11:10:28.557Z,4.55
2023-01-19T11:12:56.565Z,4.63
2023-01-19T11:15:28.413Z,4.43
2023-01-19T11:17:56.365Z,4.61
2023-01-19T11:20:28.310Z,4.50
2023-01-19T11:23:14.460Z,4.45
2023-01-19T11:25:47.853Z,4.56
2023-01-19T11:28:24.258Z,4.49
2023-01-19T11:31:10.804Z,4.73
2023-01-19T11:33:42.467Z,4.59
2023-01-19T11:36:23.260Z,4.49
2023-01-19T11:38:54.074Z,4.53
2023-01-19T11:41:23.570Z,4.54
2023-01-19T11:43:55.468Z,4.55
2023-01-19T11:46:27.031Z,4.43
2023-01-19T11:49:04.972Z,4.43
2023-01-19T11:51:42.757Z,4.23
2023-01-19T11:54:23.863Z,4.31
2023-01-19T11:56:54.022Z,4.41
2023-01-19T11:59:25.029Z,4.23
2023-01-19T12:01:57.867Z,4.40
2023-01-19T12:04:36.342Z,4.61
2023-01-19T12:07:08.981Z,4.37
2023-01-19T12:09:51.644Z,4.56
2023-01-19T12:12:41.112Z,4.52
2023-01-19T12:15:34.894Z,4.59
2023-01-19T12:18:05.751Z,4.42
2023-01-19T12:20:44.331Z,4.45
2023-01-19T12:23:31.286Z,4.17
2023-01-19T12:26:08.751Z,4.10
2023-01-19T12:28:42.466Z,4.24
2023-01-19T12:31:14.338Z,4.17
2023-01-19T12:33:42.512Z,4.17
2023-01-19T12:36:30.181Z,4.03
2023-01-19T12:39:04.366Z,3.93
2023-01-19T12:41:33.880Z,4.21
2023-01-19T12:44:16.591Z,4.04
2023-01-19T12:46:50.522Z,4.00
2023-01-19T12:49:33.100Z,4.14
2023-01-19T12:52:19.701Z,4.05
2023-01-19T12:54:58.736Z,4.09
2023-01-19T12:57:41.343Z,4.00
2023-01-19T13:00:32.403Z,4.04
2023-01-19T13:03:02.966Z,3.88
2023-01-19T13:05:39.613Z,4.11
2023-01-19T13:08:07.865Z,4.09
2023-01-19T13:11:01.963Z,3.72
2023-01-19T13:13:42.392Z,3.84
2023-01-19T13:16:19.593Z,3.99
2023-01-19T13:18:53.012Z,3.92
2023-01-19T13:21:36.702Z,4.11
2023-01-19T13:24:09.814Z,4.08
2023-01-19T13:26:49.805Z,3.83
2023-01-19T13:29:30.223Z,4.08
2023-01-19T13:32:03.500Z,4.16
2023-01-19T13:34:44.158Z,4.21
2023-01-19T13:37:27.374Z,4.04
2023-01-19T13:39:55.639Z,4.22
2023-01-19T13:42:41.938Z,4.15
2023-01-19T13:45:27.007Z,4.00
2023-01-19T13:47:57.099Z,4.14
2023-01-19T13:50:31.287Z,4.10
2023-01-19T13:52:59.424Z,4.10
2023-01-19T13:55:30.445Z,3.99
2023-01-19T13:57:58.883Z,3.97
2023-01-19T14:00:31.202Z,4.08
2023-01-19T14:03:13.426Z,4.05
2023-01-19T14:05:43.442Z,3.91
2023-01-19T14:08:11.447Z,3.82
2023-01-19T14:10:54.189Z,4.02
2023-01-19T14:13:26.365Z,3.95
2023-01-19T14:15:58.687Z,3.85
2023-01-19T14:18:31.467Z,3.92
2023-01-19T14:20:59.150Z,3.66
2023-01-19T14:23:50.843Z,3.58
2023-01-19T14:26:43.570Z,3.59
2023-01-19T14:29:23.808Z,3.68
2023-01-19T14:31:53.368Z,3.58
2023-01-19T14:34:33.257Z,3.79
2023-01-19T14:37:02.599Z,3.80
2023-01-19T14:39:36.210Z,3.91
2023-01-19T14:42:06.765Z,3.87
2023-01-19T14:44:41.062Z,3.76
2023-01-19T14:47:30.413Z,3.78
2023-01-19T14:50:02.862Z,3.67
2023-01-19T14:52:42.271Z,3.54
2023-01-19T14:55:21.328Z,3.62
2023-01-19T14:57:49.202Z,3.53
2023-01-19T15:00:19.358Z,3.48
2023-01-19T15:02:47.918Z,3.46
2023-01-19T15:05:16.559Z,3.43
2023-01-19T15:07:46.228Z,3.34
2023-01-19T15:10:23.832Z,3.41
2023-01-19T15:12:52.997Z,3.26
2023-01-19T15:15:26.835Z,3.20
2023-01-19T15:17:56.199Z,3.25
2023-01-19T15:20:24.607Z,3.17
2023-01-19T15:22:52.263Z,3.10
2023-01-19T15:25:23.065Z,3.09
2023-01-19T15:27:50.805Z,3.30
2023-01-19T15:30:33.676Z,3.32
2023-01-19T15:33:01.986Z,3.25
2023-01-19T15:35:29.920Z,3.21
2023-01-19T15:37:57.811Z,3.22
2023-01-19T15:40:25.929Z,3.07
2023-01-19T15:42:53.490Z,3.10
2023-01-19T15:45:35.005Z,3.05
2023-01-19T15:48:07.884Z,3.14
2023-01-19T15:50:38.841Z,3.09
2023-01-19T15:53:07.849Z,3.29
2023-01-19T15:55:35.741Z,3.15
2023-01-19T15:58:03.588Z,3.13
2023-01-19T16:00:33.327Z,3.30
2023-01-19T16:03:02.613Z,3.32
2023-01-19T16:05:42.631Z,3.22
2023-01-19T16:08:12.117Z,2.99
2023-01-19T16:10:41.923Z,3.08
2023-01-19T16:13:12.047Z,2.93
2023-01-19T16:15:42.493Z,2.89
2023-01-19T16:18:10.355Z,2.77
2023-01-19T16:20:38.337Z,2.78
2023-01-19T16:23:21.122Z,2.84
2023-01-19T16:26:00.922Z,2.86
2023-01-19T16:28:28.699Z,2.71
2023-01-19T16:30:56.647Z,2.78
2023-01-19T16:33:24.262Z,2.83
2023-01-19T16:35:52.779Z,2.80
2023-01-19T16:38:21.832Z,2.87
2023-01-19T16:40:50.030Z,2.75
2023-01-19T16:43:18.688Z,2.79
2023-01-19T16:46:01.261Z,2.71
2023-01-19T16:48:29.884Z,2.82
2023-01-19T16:51:03.371Z,2.79
2023-01-19T16:53:32.473Z,2.82
2023-01-19T16:56:04.295Z,2.79
2023-01-19T16:58:32.024Z,2.74
2023-01-19T17:01:00.032Z,2.64
2023-01-19T17:03:27.702Z,2.73
2023-01-19T17:05:55.670Z,2.88
2023-01-19T17:08:23.399Z,2.83
2023-01-19T17:10:51.418Z,2.95
2023-01-19T17:13:19.064Z,3.08
2023-01-19T17:15:47.167Z,2.93
2023-01-19T17:18:14.834Z,2.78
2023-01-19T17:20:42.762Z,2.84
2023-01-19T17:23:10.432Z,2.73
2023-01-19T17:25:38.353Z,2.71
2023-01-19T17:28:05.998Z,2.91
2023-01-19T17:30:34.182Z,2.97
2023-01-19T17:33:01.881Z,2.95
2023-01-19T17:35:29.792Z,2.93
2023-01-19T17:37:58.369Z,2.99
2023-01-19T17:40:26.252Z,2.87
2023-01-19T17:42:53.904Z,2.70
2023-01-19T17:45:21.827Z,2.73
2023-01-19T17:47:52.665Z,2.72
2023-01-19T17:50:20.534Z,2.99
2023-01-19T17:52:48.291Z,2.80
2023-01-19T17:55:17.735Z,2.92
2023-01-19T17:57:45.588Z,2.66
2023-01-19T18:00:14.513Z,2.56
2023-01-19T18:02:42.444Z,2.44
2023-01-19T18:05:12.693Z,2.48
2023-01-19T18:07:40.700Z,2.46
2023-01-19T18:10:09.515Z,2.61
2023-01-19T18:12:37.439Z,2.67
2023-01-19T18:15:07.002Z,2.75
2023-01-19T18:17:34.749Z,2.63
2023-01-19T18:20:02.838Z,2.68
2023-01-19T18:22:31.643Z,2.62
2023-01-19T18:25:01.581Z,2.79
2023-01-19T18:27:29.471Z,2.59
2023-01-19T18:29:57.720Z,2.70
2023-01-19T18:32:27.165Z,2.70
2023-01-19T18:34:55.529Z,2.56
2023-01-19T18:37:23.187Z,2.56
2023-01-19T18:39:51.185Z,2.52
2023-01-19T18:42:18.816Z,2.54
2023-01-19T18:44:46.732Z,2.54
2023-01-19T18:47:14.579Z,2.62
2023-01-19T18:49:42.512Z,2.60
2023-01-19T18:52:10.317Z,2.50
2023-01-19T18:54:38.285Z,2.50
2023-01-19T18:57:05.894Z,2.36
2023-01-19T18:59:33.925Z,2.33
2023-01-19T19:02:01.716Z,2.38
2023-01-19T19:04:29.681Z,2.34
2023-01-19T19:06:57.386Z,2.36
2023-01-19T19:09:25.339Z,2.19
2023-01-19T19:11:53.007Z,2.33
2023-01-19T19:14:20.868Z,2.25
2023-01-19T19:16:48.505Z,2.19
2023-01-19T19:19:17.074Z,2.15
2023-01-19T19:21:45.061Z,2.05
2023-01-19T19:24:13.514Z,2.00
2023-01-19T19:26:41.989Z,2.00
2023-01-19T19:29:09.880Z,1.97
2023-01-19T19:31:37.533Z,2.09
2023-01-19T19:34:05.755Z,2.04
2023-01-19T19:36:33.626Z,2.07
2023-01-19T19:39:01.600Z,2.03
2023-01-19T19:41:29.943Z,1.97
2023-01-19T19:43:58.583Z,1.90
2023-01-19T19:46:27.090Z,1.94
2023-01-19T19:48:55.532Z,1.95
2023-01-19T19:51:27.068Z,1.95
2023-01-19T19:53:57.417Z,2.07
2023-01-19T19:56:27.993Z,1.89
2023-01-19T19:58:58.154Z,1.98
2023-01-19T20:01:32.524Z,1.91
2023-01-19T20:04:09.535Z,1.88
2023-01-19T20:06:40.967Z,1.78
2023-01-19T20:09:10.636Z,1.83
2023-01-19T20:11:38.477Z,1.77
2023-01-19T20:14:08.185Z,1.81
2023-01-19T20:16:36.376Z,1.72
2023-01-19T20:19:05.058Z,1.70
2023-01-19T20:21:38.179Z,1.83
2023-01-19T20:24:09.853Z,1.80
2023-01-19T20:26:41.026Z,1.77
2023-01-19T20:29:10.712Z,1.79
2023-01-19T20:31:43.199Z,1.73
2023-01-19T20:34:13.235Z,1.85
2023-01-19T20:36:41.705Z,1.70
2023-01-19T20:39:11.098Z,1.71
2023-01-19T20:41:43.317Z,1.75
2023-01-19T20:44:17.120Z,1.70
2023-01-19T20:46:44.818Z,1.71
2023-01-19T20:49:13.564Z,1.70
2023-01-19T20:51:43.506Z,1.70
2023-01-19T20:54:12.688Z,1.58
2023-01-19T20:56:41.587Z,1.63
2023-01-19T20:59:11.283Z,1.79
2023-01-19T21:01:40.236Z,1.75
2023-01-19T21:04:08.889Z,1.60
2023-01-19T21:06:37.293Z,1.63
2023-01-19T21:09:05.686Z,1.67
2023-01-19T21:11:33.360Z,1.72
2023-01-19T21:14:00.895Z,1.62
2023-01-19T21:16:30.981Z,1.77
2023-01-19T21:18:59.035Z,1.74
2023-01-19T21:21:31.826Z,1.63
2023-01-19T21:24:01.572Z,1.68
2023-01-19T21:26:30.295Z,1.71
2023-01-19T21:28:59.514Z,1.67
2023-01-19T21:31:28.497Z,1.77
2023-01-19T21:33:57.716Z,1.75
2023-01-19T21:36:25.769Z,1.64
2023-01-19T21:38:55.635Z,1.67
2023-01-19T21:41:23.965Z,1.64
2023-01-19T21:43:51.627Z,1.64
2023-01-19T21:46:28.848Z,1.59
2023-01-19T21:49:01.821Z,1.56
2023-01-19T21:51:34.819Z,1.63
2023-01-19T21:54:04.304Z,1.60
2023-01-19T21:56:32.776Z,1.58
2023-01-19T21:59:04.173Z,1.59
2023-01-19T22:01:35.596Z,1.56
2023-01-19T22:04:03.613Z,1.50
2023-01-19T22:06:31.728Z,1.48
2023-01-19T22:09:00.740Z,1.59
2023-01-19T22:11:30.083Z,1.53
2023-01-19T22:14:01.434Z,1.51
2023-01-19T22:16:30.266Z,1.53
2023-01-19T22:19:01.189Z,1.52
2023-01-19T22:21:31.956Z,1.58
2023-01-19T22:24:01.319Z,1.56
2023-01-19T22:26:31.010Z,1.60
2023-01-19T22:29:01.047Z,1.63
2023-01-19T22:31:30.775Z,1.64
2023-01-19T22:33:58.840Z,1.67
2023-01-19T22:36:28.086Z,1.65
2023-01-19T22:39:00.837Z,1.56
2023-01-19T22:41:34.744Z,1.62
2023-01-19T22:44:05.748Z,1.55
2023-01-19T22:46:35.440Z,1.44
2023-01-19T22:49:03.972Z,1.42
2023-01-19T22:51:32.647Z,1.48
2023-01-19T22:54:00.881Z,1.37
2023-01-19T22:56:30.967Z,1.34
2023-01-19T22:58:59.723Z,1.26
2023-01-19T23:01:30.363Z,1.35
2023-01-19T23:03:58.198Z,1.30
2023-01-19T23:06:31.331Z,1.38
2023-01-19T23:09:01.328Z,1.46
2023-01-19T23:11:36.055Z,1.45
2023-01-19T23:14:07.072Z,1.44
2023-01-19T23:16:36.212Z,1.46
2023-01-19T23:19:05.020Z,1.62
2023-01-19T23:21:33.393Z,1.55
2023-01-19T23:24:04.141Z,1.51
2023-01-19T23:26:38.449Z,1.47
2023-01-19T23:29:13.085Z,1.44
2023-01-19T23:31:44.896Z,1.39
2023-01-19T23:34:13.445Z,1.39
2023-01-19T23:36:42.745Z,1.43
2023-01-19T23:39:19.902Z,1.40
2023-01-19T23:41:48.695Z,1.32
2023-01-19T23:44:17.304Z,1.33
2023-01-19T23:46:45.972Z,1.39
2023-01-19T23:49:14.456Z,1.44
2023-01-19T23:51:42.762Z,1.46
2023-01-19T23:54:12.214Z,1.48
2023-01-19T23:56:40.287Z,1.47
2023-01-19T23:59:10.536Z,1.41
